KGJT/GJT METAR and TAF weather

Enter ICAO airport designator
Station Type Date Time Source
KGJT METAR 2019/10/21 01:53 UTC NOAA

KGJT 210153Z 30004KT 10SM CLR 05/M11 A3005 RMK AO2 SLP179 T00501106


Station Type Date Time Source
KGJT Decoded METAR 2019/10/21 01:53 UTC NOAA

GRAND JUNCTION WALKER FIELD, CO, United States (KGJT) 39-08N 108-32W 1452M
Oct 20, 2019 - 09:53 PM EDT / 2019.10.21 0153 UTC
Wind: from the WNW (300 degrees) at 5 MPH (4 KT):0
Visibility: 10 mile(s):0
Sky conditions: clear
Temperature: 41.0 F (5.0 C)
Dew Point: 12.9 F (-10.6 C)
Relative Humidity: 31%
Pressure (altimeter): 30.05 in. Hg (1017 hPa)
ob: KGJT 210153Z 30004KT 10SM CLR 05/M11 A3005 RMK AO2 SLP179 T00501106
cycle: 2

Station Type Date Time Source
KGJT TAF 2019/10/20 18:42 UTC NOAA

TAF KGJT 201741Z 2018/2118 28012G20KT P6SM BKN070
FM201900 29012G20KT P6SM FEW090 SCT250
FM202200 29013KT P6SM FEW090 SCT150
FM210300 31005KT P6SM FEW090 FEW250

Example: see airport list